Citta Di Savona — IMDS — position and weather

sailwx.info

Track history (hours):
 
Tides and Currents Weather Stations Pressure Air Temp Water Temp Dewpoint Dewpoint Depression Visibility Wind Speed Wind Dir Waves Ship Positions

Citta Di Savona

Last reported at 2014-Nov-25 20:17 UTC. Time now 2014-Nov-25 20:53 UTC.
Position N 44°18' E 008°29'.

Length 31 m; draft 4.2 m.

Type: Tug. MMSI: 247402000.

Date/timePositionNaut miles runAvg speedWind from/ knotsBaromVisibWave heightAir tempDewpointWater temp
2014-Nov-25 20:17N 44°18' E 008°29'0 0.0
2014-Nov-25 19:33N 44°18' E 008°29'0 0.0
2014-Nov-25 18:33N 44°18' E 008°29'0 0.0
2014-Nov-25 17:18N 44°18' E 008°29'0 0.0
2014-Nov-25 16:16N 44°18' E 008°29'0 0.0
2014-Nov-25 15:33N 44°18' E 008°29'0 0.0
2014-Nov-25 14:33N 44°18' E 008°29'0 0.0
2014-Nov-25 13:33N 44°18' E 008°29'0 0.0
2014-Nov-24 18:24N 44°18' E 008°29'0 0.0
2014-Nov-24 17:16N 44°18' E 008°29'0 0.0
2014-Nov-24 16:18N 44°18' E 008°29'0 0.0
2014-Nov-24 15:33N 44°18' E 008°29'0 0.0
2014-Nov-24 12:15N 44°18' E 008°29'0 0.0
2014-Nov-24 11:33N 44°18' E 008°29'0 0.0
2014-Nov-24 09:18N 44°18' E 008°29'0 0.0
2014-Nov-24 08:05N 44°18' E 008°29'1 1.5
2014-Nov-24 07:34N 44°19' E 008°30'4 3.7
2014-Nov-24 06:32N 44°16' E 008°27'3 1.3
2014-Nov-24 04:05N 44°18' E 008°29'0 0.0
2014-Nov-24 03:33N 44°18' E 008°29'0 0.0
2014-Nov-24 02:33N 44°18' E 008°29'0 0.0
2014-Nov-24 01:33N 44°18' E 008°29'0 0.0
2014-Nov-24 00:33N 44°18' E 008°29'0 0.0
2014-Nov-23 10:33N 44°18' E 008°29'0 0.0
2014-Nov-23 09:25N 44°18' E 008°29'0 0.0
2014-Nov-23 08:32N 44°18' E 008°29'0 0.0
2014-Nov-23 07:33N 44°18' E 008°29'0 0.0
2014-Nov-23 06:33N 44°18' E 008°29'0 0.0
2014-Nov-23 05:16N 44°19' E 008°29'0 0.0
2014-Nov-22 12:08N 44°19' E 008°29'0 0.8
2014-Nov-22 11:33N 44°19' E 008°30'3 2.7
2014-Nov-22 10:33N 44°17' E 008°27'1 0.7
2014-Nov-22 09:12N 44°16' E 008°27'0 0.3
2014-Nov-22 08:22N 44°16' E 008°27'4 4.4
2014-Nov-22 07:32N 44°19' E 008°30'1 0.9
2014-Nov-22 06:33N 44°18' E 008°29'0 0.0
2014-Nov-21 11:33N 44°18' E 008°29'0 0.0
2014-Nov-21 07:33N 44°18' E 008°29'0 0.0
2014-Nov-21 04:05N 44°18' E 008°29'0 0.0
2014-Nov-21 03:33N 44°18' E 008°29'0 0.0
2014-Nov-21 02:33N 44°18' E 008°29'0 0.0
2014-Nov-21 01:33N 44°18' E 008°29'0 0.0
2014-Nov-21 00:29N 44°18' E 008°29'0 0.0
2014-Nov-20 23:31N 44°18' E 008°29'0 0.0
2014-Nov-19 18:33N 44°19' E 008°29'0 0.4
2014-Nov-19 17:32N 44°19' E 008°30'1 0.1
2014-Nov-19 08:04N 44°18' E 008°29'0 0.0
2014-Nov-19 07:31N 44°18' E 008°29'0 0.0
2014-Nov-19 04:16N 44°18' E 008°29'0 0.0
2014-Nov-19 03:22N 44°18' E 008°29'0 0.0
2014-Nov-19 02:28N 44°18' E 008°29'0 0.0
2014-Nov-19 01:10N 44°18' E 008°29'0 0.0
2014-Nov-19 00:04N 44°18' E 008°29'0 0.0
2014-Nov-18 20:04N 44°18' E 008°29'2 0.1
2014-Nov-17 07:32N 44°17' E 008°28'3 2.5
2014-Nov-17 06:32N 44°19' E 008°30'0 0.1
2014-Nov-17 05:18N 44°19' E 008°30'0 0.0
2014-Nov-16 18:24N 44°19' E 008°30'0 0.0
2014-Nov-16 08:20N 44°19' E 008°30'0 0.6
2014-Nov-16 07:33N 44°19' E 008°29'  
Track history (hours):
 
Tides and Currents Weather Stations Pressure Air Temp Water Temp Dewpoint Dewpoint Depression Visibility Wind Speed Wind Dir Waves Ship Positions

Citta Di Savona

Last reported at 2014-Nov-25 20:17 UTC. Time now 2014-Nov-25 20:53 UTC.
Position N 44°18' E 008°29'.

Length 31 m; draft 4.2 m.

Type: Tug. MMSI: 247402000.

Date/timePositionNaut miles runAvg speedWind from/ knotsBaromVisibWave heightAir tempDewpointWater temp
2014-Nov-25 20:17N 44°18' E 008°29'0 0.0
2014-Nov-25 19:33N 44°18' E 008°29'0 0.0
2014-Nov-25 18:33N 44°18' E 008°29'0 0.0
2014-Nov-25 17:18N 44°18' E 008°29'0 0.0
2014-Nov-25 16:16N 44°18' E 008°29'0 0.0
2014-Nov-25 15:33N 44°18' E 008°29'0 0.0
2014-Nov-25 14:33N 44°18' E 008°29'0 0.0
2014-Nov-25 13:33N 44°18' E 008°29'0 0.0
2014-Nov-24 18:24N 44°18' E 008°29'0 0.0
2014-Nov-24 17:16N 44°18' E 008°29'0 0.0
2014-Nov-24 16:18N 44°18' E 008°29'0 0.0
2014-Nov-24 15:33N 44°18' E 008°29'0 0.0
2014-Nov-24 12:15N 44°18' E 008°29'0 0.0
2014-Nov-24 11:33N 44°18' E 008°29'0 0.0
2014-Nov-24 09:18N 44°18' E 008°29'0 0.0
2014-Nov-24 08:05N 44°18' E 008°29'1 1.5
2014-Nov-24 07:34N 44°19' E 008°30'4 3.7
2014-Nov-24 06:32N 44°16' E 008°27'3 1.3
2014-Nov-24 04:05N 44°18' E 008°29'0 0.0
2014-Nov-24 03:33N 44°18' E 008°29'0 0.0
2014-Nov-24 02:33N 44°18' E 008°29'0 0.0
2014-Nov-24 01:33N 44°18' E 008°29'0 0.0
2014-Nov-24 00:33N 44°18' E 008°29'0 0.0
2014-Nov-23 10:33N 44°18' E 008°29'0 0.0
2014-Nov-23 09:25N 44°18' E 008°29'0 0.0
2014-Nov-23 08:32N 44°18' E 008°29'0 0.0
2014-Nov-23 07:33N 44°18' E 008°29'0 0.0
2014-Nov-23 06:33N 44°18' E 008°29'0 0.0
2014-Nov-23 05:16N 44°19' E 008°29'0 0.0
2014-Nov-22 12:08N 44°19' E 008°29'0 0.8
2014-Nov-22 11:33N 44°19' E 008°30'3 2.7
2014-Nov-22 10:33N 44°17' E 008°27'1 0.7
2014-Nov-22 09:12N 44°16' E 008°27'0 0.3
2014-Nov-22 08:22N 44°16' E 008°27'4 4.4
2014-Nov-22 07:32N 44°19' E 008°30'1 0.9
2014-Nov-22 06:33N 44°18' E 008°29'0 0.0
2014-Nov-21 11:33N 44°18' E 008°29'0 0.0
2014-Nov-21 07:33N 44°18' E 008°29'0 0.0
2014-Nov-21 04:05N 44°18' E 008°29'0 0.0
2014-Nov-21 03:33N 44°18' E 008°29'0 0.0
2014-Nov-21 02:33N 44°18' E 008°29'0 0.0
2014-Nov-21 01:33N 44°18' E 008°29'0 0.0
2014-Nov-21 00:29N 44°18' E 008°29'0 0.0
2014-Nov-20 23:31N 44°18' E 008°29'0 0.0
2014-Nov-19 18:33N 44°19' E 008°29'0 0.4
2014-Nov-19 17:32N 44°19' E 008°30'1 0.1
2014-Nov-19 08:04N 44°18' E 008°29'0 0.0
2014-Nov-19 07:31N 44°18' E 008°29'0 0.0
2014-Nov-19 04:16N 44°18' E 008°29'0 0.0
2014-Nov-19 03:22N 44°18' E 008°29'0 0.0
2014-Nov-19 02:28N 44°18' E 008°29'0 0.0
2014-Nov-19 01:10N 44°18' E 008°29'0 0.0
2014-Nov-19 00:04N 44°18' E 008°29'0 0.0
2014-Nov-18 20:04N 44°18' E 008°29'2 0.1
2014-Nov-17 07:32N 44°17' E 008°28'3 2.5
2014-Nov-17 06:32N 44°19' E 008°30'0 0.1
2014-Nov-17 05:18N 44°19' E 008°30'0 0.0
2014-Nov-16 18:24N 44°19' E 008°30'0 0.0
2014-Nov-16 08:20N 44°19' E 008°30'0 0.6
2014-Nov-16 07:33N 44°19' E 008°29'  

Dump ship's entire track history